الصفحة الرئيسية
METAR-TAF:

METAR-TAF

مطار :

Koné, نيو كاليدونيا

دائرة عرض: 21-03-12S, خط طول: 164-50-18E, ارتفاع: 7 متر

METAR: مفقودة

زمن: 20:30 (09:30 UTC)

توقعات

تاريخ ووقت الإصدار 4ساعات و 30 دقيقة قبل الساعة 05:00UTC
التوقعات صالحة من01 الساعة 06 UTC إلى 02 الساعة 06 UTC
ريح 10 عقدة من الغرب/الجنوب الغربي
الرؤية 10 كم أو أكثر
غيوم قليلة على ارتفاع 5000 قدم
أصبح
من 01 الساعة 06 UTC إلى 01 الساعة 08 UTC
ريح 2 عقدةمن اتجاهات متغيرة

TAF: NWWD 010500Z 0106/0206 25010KT 9999 FEW050 BECMG 0106/0108 VRB02KT

أرصاد الطقس والتوقعات من أكثر من 4000 مطار (تقارير الطقس للمطار METAR والتنبؤ بالطقس بالمطارTAF).

المحطات المتاحة هي النقط الصفراء والحمراء على الخريطة.

حرك المؤشر فوق النقطة لمعرفة اسم المحطة.

ثم انقر لمعرفة أرصاد وتوقعات الطقس.

لتغيير الخارطة: اضغط على الأزرار الخضراء مع رمز الصليب الأسود للتكبير. على الزر الأخضر مع شرطة للتصغير، أو على الأسهم الخضراء للخرائط المجاورة.


METAR-TAF: